Time;durP1;ratioP1;P1;durP2;ratioP2;P2;SDS_P1;SDS_P2;PMS_P1;PMS_P2;Temp;Humidity;BMP_temperature;BMP_pressure;BME280_temperature;BME280_humidity;BME280_pressure;Samples;Min_cycle;Max_cycle;Signal;HPM_P1;HPM_P2
2022/12/13 00:01:51;;;;;;;29.80;17.77;;;;;;;-0.03;47.07;97454.78;8380322;28;20240;-70
2022/12/13 00:05:54;;;;;;;26.43;16.80;;;;;;;-0.03;47.36;97445.44;8379884;28;20335;-69
2022/12/13 00:09:58;;;;;;;28.27;17.17;;;;;;;0.07;47.03;97458.06;8380203;28;20237;-70
2022/12/13 00:14:01;;;;;;;25.00;16.70;;;;;;;0.05;46.73;97454.69;8380327;28;20233;-70
2022/12/13 00:18:04;;;;;;;27.13;18.00;;;;;;;-0.42;47.31;97450.06;8379941;28;20233;-70
2022/12/13 00:22:07;;;;;;;27.03;18.00;;;;;;;-0.19;46.73;97454.09;8379917;28;20232;-70
2022/12/13 00:26:13;;;;;;;26.87;16.77;;;;;;;-0.16;47.51;97458.31;8379320;28;20282;-70
2022/12/13 00:30:16;;;;;;;28.47;16.83;;;;;;;-0.27;47.40;97456.69;8380026;28;20250;-70
2022/12/13 00:34:19;;;;;;;25.87;16.40;;;;;;;-0.21;46.52;97446.47;8379686;28;20235;-70
2022/12/13 00:38:23;;;;;;;23.57;16.37;;;;;;;-0.12;46.79;97448.06;8379747;28;20220;-70
2022/12/13 00:42:27;;;;;;;25.87;15.57;;;;;;;-0.09;46.66;97440.41;8379528;28;20248;-70
2022/12/13 00:46:30;;;;;;;25.27;15.77;;;;;;;-0.07;46.56;97443.78;8379230;28;20448;-70
2022/12/13 00:50:33;;;;;;;23.53;15.87;;;;;;;-0.31;46.96;97421.97;8379112;28;20229;-70
2022/12/13 00:54:36;;;;;;;25.73;15.17;;;;;;;-0.18;46.62;97435.41;8379102;28;20244;-70
2022/12/13 00:58:40;;;;;;;22.60;15.23;;;;;;;-0.21;46.67;97430.34;8379275;28;20571;-70
2022/12/13 01:02:43;;;;;;;21.93;15.60;;;;;;;-0.35;46.28;97416.94;8378695;28;20228;-70
2022/12/13 01:06:48;;;;;;;22.37;16.00;;;;;;;-0.27;46.54;97431.25;8379464;28;20452;-70
2022/12/13 01:10:51;;;;;;;22.47;14.97;;;;;;;-0.37;47.00;97433.91;8385847;28;20233;-70
2022/12/13 01:14:55;;;;;;;23.10;15.57;;;;;;;-0.54;47.10;97427.25;8385185;28;20551;-69
2022/12/13 01:18:58;;;;;;;23.07;15.30;;;;;;;-0.38;46.32;97422.91;8385605;28;20286;-70
2022/12/13 01:23:01;;;;;;;21.00;14.10;;;;;;;-0.48;46.85;97426.38;8385298;28;20236;-70
2022/12/13 01:27:04;;;;;;;23.33;15.10;;;;;;;-0.58;46.64;97423.06;8384858;28;20240;-69
2022/12/13 01:31:10;;;;;;;19.40;13.83;;;;;;;-0.56;46.84;97418.81;8384800;28;20235;-69
2022/12/13 01:35:13;;;;;;;24.17;14.83;;;;;;;-0.56;46.83;97423.88;8385115;28;20271;-70
2022/12/13 01:39:19;;;;;;;22.73;14.20;;;;;;;-0.48;46.83;97421.28;8384843;28;20500;-70
2022/12/13 01:43:32;;;;;;;24.13;14.93;;;;;;;-0.58;46.72;97433.25;8384860;28;20236;-70
2022/12/13 01:47:40;;;;;;;22.20;14.70;;;;;;;-0.45;46.24;97417.00;8384475;28;20420;-70
2022/12/13 01:51:46;;;;;;;23.67;14.97;;;;;;;-0.64;46.10;97410.41;8384404;28;20221;-70
2022/12/13 01:55:50;;;;;;;24.43;14.40;;;;;;;-0.60;46.39;97422.25;8384163;28;20241;-70
2022/12/13 01:59:55;;;;;;;20.07;14.03;;;;;;;-0.58;46.38;97410.34;8383666;28;20225;-70
2022/12/13 02:03:59;;;;;;;23.93;13.90;;;;;;;-0.64;46.39;97411.25;8384044;28;20237;-70
2022/12/13 02:08:02;;;;;;;19.77;13.70;;;;;;;-0.61;46.67;97413.78;8383822;28;20470;-70
2022/12/13 02:12:06;;;;;;;23.47;14.20;;;;;;;-0.51;45.98;97399.25;8383619;28;20245;-69
2022/12/13 02:16:16;;;;;;;22.27;14.23;;;;;;;-0.72;45.73;97395.22;8383074;28;20256;-70
2022/12/13 02:20:57;;;;;;;21.80;13.43;;;;;;;-0.82;46.28;97394.47;8383289;28;20395;-69
2022/12/13 02:25:13;;;;;;;21.17;13.43;;;;;;;-0.74;46.09;97399.47;8382814;28;20233;-70
2022/12/13 02:30:07;;;;;;;20.90;13.57;;;;;;;-0.70;45.63;97398.59;8383126;28;20248;-70
2022/12/13 02:34:14;;;;;;;24.07;14.27;;;;;;;-0.73;45.46;97400.31;8315104;28;20328;-70
2022/12/13 02:38:24;;;;;;;21.70;13.83;;;;;;;-0.72;45.79;97394.34;8382947;28;20225;-70
2022/12/13 02:42:30;;;;;;;24.23;14.50;;;;;;;-0.73;45.81;97396.06;8382737;28;20228;-70
2022/12/13 02:46:36;;;;;;;24.07;14.63;;;;;;;-0.66;46.11;97396.88;8382601;28;20253;-70
2022/12/13 02:50:42;;;;;;;25.07;15.23;;;;;;;-0.61;45.67;97393.44;8382819;28;20224;-70
2022/12/13 02:54:44;;;;;;;21.53;13.80;;;;;;;-0.79;45.59;97386.78;8382252;28;20225;-70
2022/12/13 02:58:50;;;;;;;22.27;14.40;;;;;;;-0.60;45.28;97379.00;8382196;28;20335;-70
2022/12/13 03:03:05;;;;;;;21.87;14.63;;;;;;;-0.90;45.62;97375.84;8381741;28;20266;-70
2022/12/13 03:07:19;;;;;;;20.63;14.13;;;;;;;-0.89;45.75;97377.56;8381587;28;20244;-70
2022/12/13 03:11:25;;;;;;;21.53;14.30;;;;;;;-0.86;45.40;97374.13;8381885;28;20236;-69
2022/12/13 03:15:33;;;;;;;22.83;14.27;;;;;;;-0.81;44.96;97368.16;8381440;28;20316;-70
2022/12/13 03:19:36;;;;;;;22.47;14.13;;;;;;;-0.88;44.86;97363.13;8381407;28;20228;-70
2022/12/13 03:23:40;;;;;;;21.47;13.53;;;;;;;-0.98;45.18;97347.97;8381378;28;20294;-70
2022/12/13 03:27:43;;;;;;;24.00;14.90;;;;;;;-0.97;45.23;97369.16;8381130;28;20232;-70
2022/12/13 03:31:46;;;;;;;22.77;14.40;;;;;;;-1.00;45.39;97367.47;8380245;28;20259;-70
2022/12/13 03:35:49;;;;;;;19.93;13.93;;;;;;;-1.02;45.22;97363.25;8380968;28;20237;-70
2022/12/13 03:39:53;;;;;;;21.87;14.47;;;;;;;-1.38;45.43;97352.50;8380997;28;20323;-70
2022/12/13 03:43:56;;;;;;;20.60;13.20;;;;;;;-1.31;45.60;97348.25;8380411;28;20264;-69
2022/12/13 03:47:59;;;;;;;19.90;13.30;;;;;;;-1.24;45.89;97352.41;8380647;28;20544;-70
2022/12/13 03:52:01;;;;;;;19.57;13.13;;;;;;;-1.20;46.36;97354.06;8380464;28;20314;-70
2022/12/13 03:56:06;;;;;;;18.47;12.27;;;;;;;-1.01;46.02;97345.47;8380514;28;20237;-70
2022/12/13 04:00:10;;;;;;;20.00;12.53;;;;;;;-1.19;45.43;97359.13;8380451;28;20520;-69
2022/12/13 04:04:13;;;;;;;21.40;13.03;;;;;;;-1.24;45.13;97324.47;8380553;28;20286;-70
2022/12/13 04:08:15;;;;;;;19.13;12.43;;;;;;;-1.13;45.26;97329.47;8380431;28;20256;-69
2022/12/13 04:16:51;;;;;;;18.67;12.20;;;;;;;-1.13;45.04;97324.38;8380392;28;20320;-69
2022/12/13 04:20:53;;;;;;;17.83;12.17;;;;;;;-1.15;45.07;97326.94;8380041;28;20339;-69
2022/12/13 04:24:56;;;;;;;16.40;11.50;;;;;;;-1.28;45.07;97322.78;8379456;28;20259;-69
2022/12/13 04:29:00;;;;;;;17.60;11.43;;;;;;;-1.21;45.20;97322.75;8378596;28;20228;-69
2022/12/13 04:33:03;;;;;;;19.30;11.67;;;;;;;-1.23;44.96;97319.38;8378690;28;20449;-69
2022/12/13 04:37:06;;;;;;;18.50;12.07;;;;;;;-1.19;44.92;97308.31;8378425;28;20253;-69
2022/12/13 04:41:14;;;;;;;18.07;11.90;;;;;;;-1.22;44.96;97315.97;8378018;28;20533;-69
2022/12/13 04:45:18;;;;;;;15.87;11.30;;;;;;;-1.19;44.91;97315.09;8378720;28;20245;-70
2022/12/13 04:49:21;;;;;;;18.30;11.97;;;;;;;-1.36;44.59;97291.53;8379149;28;20226;-69
2022/12/13 04:53:23;;;;;;;18.17;12.53;;;;;;;-1.34;45.33;97310.16;8378738;28;20508;-69
2022/12/13 04:57:26;;;;;;;17.03;11.37;;;;;;;-1.38;45.17;97312.69;8378805;28;20239;-69
2022/12/13 05:01:30;;;;;;;17.93;11.63;;;;;;;-1.39;44.84;97310.16;8378620;28;20224;-69
2022/12/13 05:05:33;;;;;;;20.33;13.70;;;;;;;-1.32;44.44;97321.97;8378399;28;20236;-69
2022/12/13 05:09:36;;;;;;;17.57;11.90;;;;;;;-1.28;44.25;97310.94;8378498;28;20252;-70
2022/12/13 05:13:39;;;;;;;18.23;11.97;;;;;;;-1.23;43.83;97321.06;8378146;28;20237;-69
2022/12/13 05:17:43;;;;;;;20.40;11.93;;;;;;;-1.58;44.12;97317.94;8378217;28;20296;-69
2022/12/13 05:21:46;;;;;;;18.17;11.70;;;;;;;-1.50;44.65;97327.19;8378175;28;20240;-70
2022/12/13 05:25:49;;;;;;;21.83;13.63;;;;;;;-1.59;44.11;97323.00;8377920;28;20241;-69
2022/12/13 05:29:51;;;;;;;20.23;13.63;;;;;;;-1.54;44.64;97331.47;8378126;28;20237;-69
2022/12/13 05:34:05;;;;;;;19.30;12.70;;;;;;;-1.73;44.23;97319.69;8377729;28;20454;-69
2022/12/13 05:38:08;;;;;;;17.37;11.67;;;;;;;-1.50;43.92;97317.88;8377817;28;20497;-69
2022/12/13 05:42:11;;;;;;;17.60;11.73;;;;;;;-1.65;44.47;97316.28;8377888;28;20454;-69
2022/12/13 05:46:13;;;;;;;18.90;13.43;;;;;;;-1.62;44.69;97323.03;8377705;28;20563;-69
2022/12/13 05:50:17;;;;;;;19.40;13.37;;;;;;;-1.66;43.76;97321.34;8378281;28;20338;-70
2022/12/13 05:54:20;;;;;;;21.50;13.07;;;;;;;-1.71;43.98;97312.91;8380764;28;20241;-69
2022/12/13 05:58:23;;;;;;;19.97;12.60;;;;;;;-1.78;44.52;97310.44;8384117;28;20271;-69
2022/12/13 06:02:25;;;;;;;21.03;12.60;;;;;;;-1.67;43.82;97305.28;8383887;28;20233;-69
2022/12/13 06:06:30;;;;;;;21.67;13.13;;;;;;;-1.74;44.62;97318.88;8383681;28;20229;-69
2022/12/13 06:10:33;;;;;;;20.27;14.07;;;;;;;-1.86;44.96;97309.63;8383465;28;20331;-69
2022/12/13 06:14:37;;;;;;;20.63;15.47;;;;;;;-1.79;44.77;97300.28;8383308;28;20244;-70
2022/12/13 06:18:40;;;;;;;22.53;16.43;;;;;;;-1.78;44.76;97302.81;8383346;28;20220;-69
2022/12/13 06:22:44;;;;;;;18.83;11.70;;;;;;;-1.64;44.47;97304.41;8383347;28;20228;-70
2022/12/13 06:26:47;;;;;;;18.97;12.07;;;;;;;-1.79;44.76;97303.69;8382595;28;20436;-69
2022/12/13 06:30:51;;;;;;;19.17;12.07;;;;;;;-1.83;44.61;97302.00;8382930;28;20229;-69
2022/12/13 06:34:54;;;;;;;16.97;11.33;;;;;;;-1.73;44.91;97300.25;8382135;28;20406;-69
2022/12/13 06:39:03;;;;;;;14.57;10.50;;;;;;;-1.89;44.96;97280.88;8382325;28;20501;-68
2022/12/13 06:43:07;;;;;;;19.90;13.00;;;;;;;-1.73;45.18;97310.41;8381969;28;20228;-69
2022/12/13 06:47:10;;;;;;;25.30;14.97;;;;;;;-1.76;44.91;97307.88;8382866;28;20233;-69
2022/12/13 06:51:34;;;;;;;17.80;11.80;;;;;;;-1.72;44.59;97307.00;8383024;28;20260;-69
2022/12/13 06:55:38;;;;;;;15.17;10.63;;;;;;;-2.03;45.62;97307.19;8382429;28;20339;-69
2022/12/13 06:59:41;;;;;;;23.70;13.50;;;;;;;-1.78;44.34;97312.13;8381301;28;20326;-69
2022/12/13 07:03:45;;;;;;;27.60;17.00;;;;;;;-1.91;44.46;97305.44;8381257;28;20228;-69
2022/12/13 07:07:47;;;;;;;27.77;18.53;;;;;;;-1.93;44.44;97312.22;8381084;28;20245;-69
2022/12/13 07:11:52;;;;;;;26.37;16.77;;;;;;;-1.74;44.28;97321.41;8381829;28;20237;-69
2022/12/13 07:15:55;;;;;;;22.30;14.53;;;;;;;-1.75;44.10;97314.66;8381108;28;20244;-69
2022/12/13 07:20:08;;;;;;;22.87;15.63;;;;;;;-1.67;43.79;97312.91;8381711;28;20320;-69
2022/12/13 07:24:10;;;;;;;25.27;16.13;;;;;;;-2.10;43.72;97244.63;8382156;28;20286;-69
2022/12/13 07:28:18;;;;;;;18.73;12.97;;;;;;;-1.67;43.86;97322.22;8381233;28;20232;-69
2022/12/13 07:32:21;;;;;;;19.17;11.97;;;;;;;-1.74;44.35;97330.72;8381375;28;20232;-69
2022/12/13 07:36:24;;;;;;;19.53;13.13;;;;;;;-1.65;43.95;97325.59;8381452;28;20517;-69
2022/12/13 07:40:26;;;;;;;16.50;11.03;;;;;;;-1.84;44.31;97324.88;8381044;28;20235;-69
2022/12/13 07:44:30;;;;;;;15.67;10.40;;;;;;;-1.58;44.12;97330.63;8380570;28;20446;-70
2022/12/13 07:48:33;;;;;;;18.37;10.87;;;;;;;-1.70;44.17;97307.84;8380962;28;20447;-69
2022/12/13 07:52:36;;;;;;;14.60;10.53;;;;;;;0.12;41.54;97319.66;8380409;28;20252;-69
2022/12/13 07:56:38;;;;;;;15.53;10.20;;;;;;;2.87;35.67;97326.50;8380408;28;20286;-68
2022/12/13 08:00:44;;;;;;;14.30;9.53;;;;;;;4.05;33.87;97321.75;8380201;28;20525;-69
2022/12/13 08:04:48;;;;;;;13.70;10.03;;;;;;;4.48;33.63;97330.78;8380294;28;20310;-69
2022/12/13 08:08:57;;;;;;;12.00;8.83;;;;;;;8.29;73.74;97335.41;8379565;28;20274;-70
2022/12/13 08:13:02;;;;;;;11.90;9.00;;;;;;;7.67;45.76;97337.25;8380411;28;20279;-70
2022/12/13 08:17:06;;;;;;;14.83;10.90;;;;;;;3.71;37.71;97325.25;8379730;28;20229;-70
2022/12/13 08:21:09;;;;;;;13.03;10.27;;;;;;;2.04;39.27;97336.03;8379593;28;20531;-71
2022/12/13 08:25:32;;;;;;;15.50;11.00;;;;;;;1.00;40.79;97328.56;8378969;28;20260;-71
2022/12/13 08:29:35;;;;;;;15.10;11.13;;;;;;;0.82;41.20;97341.59;8379511;28;20224;-70
2022/12/13 08:33:40;;;;;;;16.90;11.17;;;;;;;0.82;42.15;97345.00;8379210;28;20355;-70
2022/12/13 08:37:42;;;;;;;14.73;11.07;;;;;;;0.48;43.30;97353.16;8378987;28;20231;-70
2022/12/13 08:41:46;;;;;;;16.47;10.83;;;;;;;0.16;44.02;97338.28;8378907;28;20531;-70
2022/12/13 08:45:50;;;;;;;15.17;10.97;;;;;;;0.45;43.71;97347.25;8378312;28;20244;-71
2022/12/13 08:49:57;;;;;;;15.63;10.97;;;;;;;-0.30;44.52;97334.59;8378565;28;20470;-70
2022/12/13 08:54:04;;;;;;;15.80;10.87;;;;;;;0.05;44.46;97352.84;8378532;28;20591;-71
2022/12/13 08:58:13;;;;;;;15.43;11.23;;;;;;;0.19;44.69;97344.19;8378584;28;20528;-71
2022/12/13 09:02:16;;;;;;;14.83;10.70;;;;;;;0.18;44.82;97341.66;8378429;28;20252;-70
2022/12/13 09:06:20;;;;;;;16.23;13.27;;;;;;;0.84;44.33;97345.81;8376970;28;20402;-71
2022/12/13 09:10:23;;;;;;;18.20;11.50;;;;;;;0.44;44.96;97353.19;8378174;28;20378;-69
2022/12/13 09:14:29;;;;;;;17.80;11.67;;;;;;;0.14;45.89;97352.75;8377987;28;20230;-70
2022/12/13 09:18:35;;;;;;;23.93;15.43;;;;;;;-0.03;46.58;97355.50;8378240;28;20232;-70
2022/12/13 09:22:40;;;;;;;43.20;33.38;;;;;;;0.43;45.72;97352.34;8377703;28;20413;-71
2022/12/13 09:26:47;;;;;;;24.20;15.90;;;;;;;0.42;45.94;97345.59;8377929;28;20308;-71
2022/12/13 09:30:58;;;;;;;63.27;36.27;;;;;;;0.22;46.66;97329.72;8383753;28;20425;-71
2022/12/13 09:35:01;;;;;;;18.37;13.53;;;;;;;0.39;47.14;97338.81;8384792;28;20233;-70
2022/12/13 09:39:05;;;;;;;17.60;12.50;;;;;;;0.41;46.92;97343.06;8384570;28;20256;-70
2022/12/13 09:43:12;;;;;;;27.00;15.63;;;;;;;0.57;46.88;97342.81;8384410;28;20221;-71
2022/12/13 09:47:30;;;;;;;25.33;15.83;;;;;;;0.12;47.31;97326.47;8384571;28;20221;-71
2022/12/13 09:51:37;;;;;;;15.70;11.00;;;;;;;0.36;46.62;97333.78;8384885;28;20229;-71
2022/12/13 09:55:49;;;;;;;17.60;11.43;;;;;;;-0.17;47.73;97294.59;8384333;28;20536;-71
2022/12/13 09:59:52;;;;;;;17.67;12.07;;;;;;;0.58;46.70;97349.59;8383746;28;20468;-70
2022/12/13 10:04:02;;;;;;;19.83;13.73;;;;;;;0.58;47.42;97341.94;8383587;28;20225;-71
2022/12/13 10:08:08;;;;;;;17.17;11.50;;;;;;;1.61;46.40;97323.25;8383406;28;20256;-71
2022/12/13 10:12:13;;;;;;;18.27;13.40;;;;;;;1.08;46.20;97321.63;8383201;28;20233;-70
2022/12/13 10:16:19;;;;;;;19.30;12.07;;;;;;;1.40;44.63;97332.16;8383477;28;20399;-70
2022/12/13 10:20:27;;;;;;;17.23;11.07;;;;;;;1.81;45.63;97313.50;8384105;28;20241;-69
2022/12/13 10:24:47;;;;;;;18.90;11.10;;;;;;;1.20;45.84;97320.59;8383313;28;20240;-70
2022/12/13 10:29:02;;;;;;;17.77;13.50;;;;;;;1.77;44.34;97314.41;8382965;28;20237;-71
2022/12/13 10:33:04;;;;;;;16.53;11.83;;;;;;;2.41;43.37;97311.41;8382616;28;20229;-70
2022/12/13 10:37:20;;;;;;;14.67;10.60;;;;;;;2.61;42.20;97313.50;8382433;28;20236;-70
2022/12/13 10:41:37;;;;;;;15.87;11.30;;;;;;;1.87;43.24;97315.94;8381197;28;20248;-70
2022/12/13 10:45:42;;;;;;;14.47;10.30;;;;;;;2.77;43.13;97319.94;8382427;28;20315;-71
2022/12/13 10:49:51;;;;;;;17.80;10.93;;;;;;;2.64;42.45;97321.94;8382877;28;20229;-71
2022/12/13 10:54:01;;;;;;;14.23;10.83;;;;;;;2.60;44.54;97314.38;8381935;28;20473;-71
2022/12/13 10:58:06;;;;;;;14.37;11.07;;;;;;;2.64;43.51;97298.94;8381848;28;20547;-71
2022/12/13 11:02:29;;;;;;;16.00;12.00;;;;;;;2.53;43.54;97298.34;8382025;28;20233;-71
2022/12/13 11:06:41;;;;;;;15.43;11.70;;;;;;;2.48;42.67;97274.63;8382208;28;20229;-72
2022/12/13 11:10:45;;;;;;;15.23;10.80;;;;;;;2.54;43.87;97305.16;8381703;28;20409;-71
2022/12/13 11:14:49;;;;;;;14.27;10.33;;;;;;;2.63;43.08;97299.81;8381908;28;20282;-71
2022/12/13 11:18:56;;;;;;;14.37;11.20;;;;;;;2.77;43.38;97303.78;8381201;28;20265;-69
2022/12/13 11:23:02;;;;;;;12.17;9.73;;;;;;;2.74;42.57;97297.84;8381668;28;20229;-70
2022/12/13 11:27:18;;;;;;;15.73;10.37;;;;;;;2.55;41.24;97288.91;8381374;28;20248;-71
2022/12/13 11:31:27;;;;;;;11.87;9.30;;;;;;;2.61;41.92;97280.25;8381095;28;20225;-71
2022/12/13 11:35:36;;;;;;;10.47;8.20;;;;;;;2.54;41.76;97274.47;8381200;28;20237;-71
2022/12/13 11:39:42;;;;;;;11.33;8.03;;;;;;;2.66;41.84;97271.59;8381454;28;20245;-71
2022/12/13 11:43:48;;;;;;;13.70;10.00;;;;;;;2.87;41.88;97275.38;8381332;28;20252;-71
2022/12/13 11:47:58;;;;;;;11.20;8.83;;;;;;;2.49;42.58;97261.78;8381052;28;20229;-71
2022/12/13 11:52:06;;;;;;;13.27;9.27;;;;;;;2.80;41.69;97250.84;8380516;28;20236;-71
2022/12/13 11:56:17;;;;;;;11.97;8.73;;;;;;;2.53;42.43;97254.88;8380335;28;20308;-72
2022/12/13 12:00:31;;;;;;;11.80;9.27;;;;;;;2.87;42.41;97243.84;8380814;28;20279;-71
2022/12/13 12:04:42;;;;;;;12.07;9.43;;;;;;;2.39;43.16;97246.72;8380399;28;20283;-70
2022/12/13 12:08:48;;;;;;;15.23;9.60;;;;;;;2.67;43.39;97239.22;8380060;28;20229;-72
2022/12/13 12:12:56;;;;;;;14.97;9.27;;;;;;;2.53;44.01;97229.31;8379653;28;20236;-72
2022/12/13 12:16:59;;;;;;;12.73;9.30;;;;;;;2.66;44.25;97230.69;8379408;28;20537;-72
2022/12/13 12:21:13;;;;;;;15.53;10.47;;;;;;;2.77;48.31;97232.19;8379924;28;20228;-71
2022/12/13 12:25:23;;;;;;;14.20;9.90;;;;;;;2.58;45.18;97222.38;8379497;28;20253;-70
2022/12/13 12:29:49;;;;;;;15.37;9.77;;;;;;;2.53;45.31;97226.75;8379966;28;20252;-71
2022/12/13 12:34:00;;;;;;;13.93;9.27;;;;;;;2.83;44.90;97209.81;8379183;28;20495;-70
2022/12/13 12:38:11;;;;;;;14.07;10.37;;;;;;;2.28;46.10;97214.56;8378934;28;20244;-71
2022/12/13 12:42:29;;;;;;;16.23;8.47;;;;;;;2.79;44.36;97209.97;8379378;28;20513;-71
2022/12/13 12:47:02;;;;;;;14.17;9.83;;;;;;;2.76;44.65;97228.78;8379176;28;20521;-70
2022/12/13 12:51:30;;;;;;;13.20;9.20;;;;;;;2.77;44.14;97220.22;8379847;28;20296;-71
2022/12/13 12:55:40;;;;;;;15.70;9.93;;;;;;;2.66;45.03;97225.59;8378745;28;20566;-72
2022/12/13 12:59:54;;;;;;;14.07;10.00;;;;;;;2.81;45.57;97231.22;8378606;28;20421;-71
2022/12/13 13:04:07;;;;;;;12.93;9.50;;;;;;;3.06;44.96;97221.19;8377726;28;20453;-70
2022/12/13 13:08:13;;;;;;;12.27;9.40;;;;;;;2.88;44.59;97218.22;8378388;28;20237;-70
2022/12/13 13:12:17;;;;;;;12.43;8.97;;;;;;;3.29;43.43;97208.63;8378921;28;20397;-71
2022/12/13 13:16:36;;;;;;;10.90;8.60;;;;;;;3.17;43.85;97195.31;8379551;28;20288;-70
2022/12/13 13:20:39;;;;;;;12.10;8.50;;;;;;;3.57;42.89;97207.03;8378971;28;20225;-70
2022/12/13 13:24:59;;;;;;;13.77;9.00;;;;;;;3.23;43.82;97213.91;8377717;28;20532;-70
2022/12/13 13:29:37;;;;;;;10.57;8.33;;;;;;;3.56;43.76;97211.31;8377775;28;20244;-71
2022/12/13 13:33:48;;;;;;;9.53;7.53;;;;;;;3.53;43.08;97214.78;8377802;28;20291;-70
2022/12/13 13:37:50;;;;;;;8.63;6.97;;;;;;;3.13;43.39;97212.47;8377774;28;20264;-70
2022/12/13 13:42:08;;;;;;;10.40;6.67;;;;;;;3.11;43.06;97212.50;8377122;28;20252;-70
2022/12/13 13:46:11;;;;;;;7.53;6.23;;;;;;;2.88;43.41;97207.16;8377852;28;20233;-70
2022/12/13 13:50:44;;;;;;;9.33;7.33;;;;;;;2.97;43.99;97199.25;8377707;28;20556;-70
2022/12/13 13:55:21;;;;;;;8.37;6.60;;;;;;;3.05;43.08;97201.63;8377748;28;20221;-70
2022/12/13 14:00:11;;;;;;;7.33;6.37;;;;;;;2.12;44.77;97183.44;8377273;28;20395;-70
2022/12/13 14:04:54;;;;;;;6.03;5.43;;;;;;;2.89;43.28;97179.00;8378215;28;20242;-69
2022/12/13 14:09:39;;;;;;;9.83;7.03;;;;;;;3.05;43.00;97179.44;8377786;28;20244;-69
2022/12/13 14:14:10;;;;;;;7.47;6.30;;;;;;;2.92;43.22;97186.56;8370129;28;20225;-70
2022/12/13 14:19:10;;;;;;;11.03;7.63;;;;;;;2.90;43.48;97190.91;8382720;28;20225;-70
2022/12/13 14:23:21;;;;;;;18.43;11.23;;;;;;;2.47;43.51;97191.13;8383084;28;20224;-70
2022/12/13 14:27:36;;;;;;;14.83;10.80;;;;;;;2.71;43.85;97203.31;8382361;28;20248;-70
2022/12/13 14:31:42;;;;;;;10.90;7.73;;;;;;;2.54;43.89;97193.50;8382882;28;20371;-71
2022/12/13 14:35:50;;;;;;;13.27;9.63;;;;;;;2.48;44.03;97198.78;8383041;28;20228;-71
2022/12/13 14:39:54;;;;;;;22.93;13.70;;;;;;;2.55;44.05;97191.78;8382121;28;20233;-71
2022/12/13 14:44:13;;;;;;;13.97;11.10;;;;;;;2.40;44.48;97189.59;8382562;28;20432;-71
2022/12/13 14:48:18;;;;;;;17.37;12.57;;;;;;;2.49;44.55;97182.53;8382695;28;20228;-69
2022/12/13 14:52:35;;;;;;;12.63;9.50;;;;;;;2.58;44.85;97185.78;8382855;28;20296;-70
2022/12/13 14:56:54;;;;;;;18.07;11.20;;;;;;;2.52;45.23;97186.75;8382444;28;20224;-69
2022/12/13 15:00:56;;;;;;;28.27;14.80;;;;;;;2.48;45.47;97185.16;8382433;28;20278;-69
2022/12/13 15:05:03;;;;;;;33.90;18.20;;;;;;;2.45;45.64;97180.13;8381952;28;20244;-69
2022/12/13 15:09:10;;;;;;;22.20;13.30;;;;;;;2.45;45.95;97185.22;8382431;28;20232;-69
2022/12/13 15:13:23;;;;;;;17.17;10.53;;;;;;;2.35;45.98;97179.50;8381624;28;20225;-69
2022/12/13 15:17:33;;;;;;;14.77;9.73;;;;;;;2.39;46.18;97183.66;8381060;28;20229;-70
2022/12/13 15:21:37;;;;;;;14.43;8.77;;;;;;;2.35;46.55;97195.66;8381589;28;20225;-70
2022/12/13 15:25:40;;;;;;;13.23;9.60;;;;;;;2.37;46.03;97185.41;8380660;28;20421;-70
2022/12/13 15:29:46;;;;;;;16.93;10.77;;;;;;;2.25;46.17;97186.56;8382019;28;20240;-72
2022/12/13 15:33:48;;;;;;;18.83;12.17;;;;;;;2.24;46.10;97187.41;8381076;28;20240;-69
2022/12/13 15:37:52;;;;;;;19.10;12.10;;;;;;;2.07;46.49;97182.69;8382089;28;20547;-70
2022/12/13 15:41:55;;;;;;;19.30;12.50;;;;;;;2.02;46.89;97188.78;8380798;28;20517;-70
2022/12/13 15:45:58;;;;;;;21.15;15.60;;;;;;;2.59;45.03;97188.28;8378576;28;20563;-69
2022/12/13 15:50:03;;;;;;;16.37;11.50;;;;;;;2.07;46.05;97186.97;8379789;28;20232;-70
2022/12/13 15:54:20;;;;;;;22.67;14.77;;;;;;;2.03;46.23;97193.03;8380494;28;20225;-70
2022/12/13 15:58:27;;;;;;;15.03;10.87;;;;;;;1.90;46.50;97189.91;8379987;28;20233;-70
2022/12/13 16:02:30;;;;;;;15.87;11.57;;;;;;;1.85;46.28;97177.25;8379826;28;20225;-70
2022/12/13 16:06:33;;;;;;;19.57;12.67;;;;;;;1.72;46.80;97186.03;8380018;28;20320;-70
2022/12/13 16:10:37;;;;;;;20.00;12.47;;;;;;;1.80;46.51;97175.66;8379524;28;20287;-70
2022/12/13 16:14:42;;;;;;;19.50;13.90;;;;;;;1.81;46.42;97169.66;8379322;28;20225;-70
2022/12/13 16:18:52;;;;;;;23.70;16.07;;;;;;;1.63;46.63;97163.25;8380394;28;20259;-70
2022/12/13 16:22:55;;;;;;;19.17;13.03;;;;;;;1.54;47.29;97151.53;8380078;28;20224;-69
2022/12/13 16:27:03;;;;;;;25.20;17.97;;;;;;;1.63;47.11;97158.16;8380252;28;20239;-70
2022/12/13 16:31:14;;;;;;;25.60;16.67;;;;;;;1.56;47.18;97165.97;8380495;28;20403;-70
2022/12/13 16:35:17;;;;;;;20.90;14.87;;;;;;;1.70;46.80;97169.94;8380613;28;20221;-70
2022/12/13 16:39:20;;;;;;;19.47;13.43;;;;;;;1.71;46.90;97169.91;8380914;28;20536;-71
2022/12/13 16:43:26;;;;;;;17.63;13.03;;;;;;;1.49;47.56;97166.94;8380687;28;20287;-71
2022/12/13 16:47:35;;;;;;;17.27;13.10;;;;;;;1.62;47.10;97156.47;8380606;28;20256;-71
2022/12/13 16:51:48;;;;;;;22.23;13.67;;;;;;;1.69;47.18;97148.66;8380539;28;20275;-71
2022/12/13 16:55:51;;;;;;;21.97;13.63;;;;;;;1.51;47.34;97141.41;8380027;28;20224;-70
2022/12/13 17:00:02;;;;;;;17.73;12.57;;;;;;;1.42;47.65;97133.94;8379836;28;20490;-70
2022/12/13 17:04:06;;;;;;;14.10;10.50;;;;;;;1.41;47.94;97117.81;8380182;28;20288;-69
2022/12/13 17:08:16;;;;;;;15.45;12.48;;;;;;;1.98;46.30;97118.22;8378837;28;20424;-72
2022/12/13 17:12:19;;;;;;;19.90;13.00;;;;;;;1.74;47.25;97128.13;8380202;28;20271;-70
2022/12/13 17:16:23;;;;;;;22.67;14.20;;;;;;;1.75;47.30;97122.13;8379956;28;20532;-70
2022/12/13 17:20:26;;;;;;;22.47;13.90;;;;;;;1.69;47.33;97118.00;8380642;28;20291;-71
2022/12/13 17:24:30;;;;;;;24.97;14.87;;;;;;;1.63;47.38;97123.25;8382081;28;20438;-71
2022/12/13 17:28:33;;;;;;;27.27;17.20;;;;;;;1.54;47.30;97119.22;8381345;28;20423;-71
2022/12/13 17:32:37;;;;;;;27.13;16.00;;;;;;;1.52;47.47;97125.22;8382003;28;20232;-71
2022/12/13 17:36:39;;;;;;;21.30;15.57;;;;;;;1.45;47.78;97119.41;8381725;28;20229;-71
2022/12/13 17:40:42;;;;;;;24.00;16.23;;;;;;;1.34;47.75;97113.69;8381254;28;20236;-70
2022/12/13 17:44:56;;;;;;;26.50;18.63;;;;;;;1.48;47.32;97100.63;8380826;28;20288;-70
2022/12/13 17:49:00;;;;;;;28.83;18.07;;;;;;;1.28;47.46;97095.97;8382594;28;20556;-71
2022/12/13 17:53:03;;;;;;;26.57;17.30;;;;;;;1.33;47.58;97077.16;8388082;28;20229;-70
2022/12/13 17:57:06;;;;;;;26.00;17.30;;;;;;;1.18;48.09;97080.00;8387975;28;20233;-71
2022/12/13 18:01:11;;;;;;;23.43;15.07;;;;;;;1.12;48.39;97085.22;8387374;28;20256;-70
2022/12/13 18:05:16;;;;;;;18.30;13.23;;;;;;;1.30;48.19;97089.97;8387521;28;20245;-70
2022/12/13 18:09:20;;;;;;;23.20;15.83;;;;;;;1.13;47.78;97077.56;8387552;28;20296;-71
2022/12/13 18:13:23;;;;;;;20.27;14.90;;;;;;;0.94;47.30;97077.09;8387458;28;20221;-71
2022/12/13 18:17:26;;;;;;;26.50;18.37;;;;;;;1.14;47.59;97078.38;8387221;28;20331;-68
2022/12/13 18:21:50;;;;;;;31.27;20.17;;;;;;;1.03;47.63;97086.28;8387278;28;20237;-70
2022/12/13 18:25:59;;;;;;;39.67;23.90;;;;;;;1.14;47.28;97098.78;8388009;28;20236;-68
2022/12/13 18:30:01;;;;;;;43.57;27.20;;;;;;;0.98;47.50;97091.47;8392597;28;20294;-68
2022/12/13 18:34:04;;;;;;;39.87;27.13;;;;;;;0.97;47.79;97100.00;8387555;28;20521;-71
2022/12/13 18:38:08;;;;;;;48.20;30.63;;;;;;;1.05;47.72;97106.63;8386473;28;20229;-71
2022/12/13 18:42:11;;;;;;;62.37;39.43;;;;;;;1.08;47.94;97112.50;8386726;28;20233;-71
2022/12/13 18:46:16;;;;;;;45.60;30.13;;;;;;;1.12;47.99;97114.16;8386263;28;20232;-70
2022/12/13 18:50:19;;;;;;;40.07;28.47;;;;;;;1.22;47.75;97101.19;8386129;28;20255;-70
2022/12/13 18:54:23;;;;;;;41.23;28.30;;;;;;;1.07;48.05;97112.56;8386309;28;20563;-71
2022/12/13 18:58:26;;;;;;;45.03;28.97;;;;;;;1.00;47.91;97111.84;8386072;28;20331;-71
2022/12/13 19:02:28;;;;;;;40.50;28.73;;;;;;;1.07;47.79;97112.56;8384835;28;20547;-70
2022/12/13 19:06:36;;;;;;;48.97;30.93;;;;;;;1.03;47.80;97101.59;8385944;28;20247;-70
2022/12/13 19:10:40;;;;;;;47.40;31.47;;;;;;;0.98;48.50;97099.09;8385566;28;20237;-70
2022/12/13 19:14:44;;;;;;;54.13;33.80;;;;;;;1.05;48.37;97088.78;8385711;28;20225;-70